AUA971 LOWW-ESGG
Flight info
| Callsign | AUA971 |
|---|---|
| Flight time | 1h 37m |
| Altitude | 38000 |
| Route | LANUX DCT TABEM DCT VLM DCT BEKVI DCT HDO M725 RENKI DCT KOGIM M44 SALLO/N0391F280 M44 INRER L621 ROKAM L997 RISMA |
| Aircraft | A320/M-SDE3FGHIRWY/LB1 |
Departure
| Time | 2026-04-22 17:11 |
|---|---|
| Airport | Vienna International Airport (LOWW) |
Arrival
| Time | 2026-04-22 18:49 |
|---|---|
| Airport | Göteborg Landvetter Airport (ESGG) |
| Time | Latitude | Longitude | Altitude | Speed | Heading |
|---|---|---|---|---|---|
| 2026-04-22 16:47 | 48.11590 | 16.56632 | 613 ft | 0 kts | 206° |
| 2026-04-22 16:49 | 48.11590 | 16.56633 | 613 ft | 0 kts | 206° |
| 2026-04-22 16:51 | 48.11591 | 16.56633 | 613 ft | 0 kts | 206° |
| 2026-04-22 17:03 | 48.11590 | 16.56632 | 609 ft | 1 kts | 206° |
| 2026-04-22 17:03 | 48.11568 | 16.56616 | 609 ft | 6 kts | 207° |
| 2026-04-22 17:03 | 48.11505 | 16.56605 | 609 ft | 13 kts | 173° |
| 2026-04-22 17:04 | 48.11415 | 16.56643 | 621 ft | 16 kts | 126° |
| 2026-04-22 17:04 | 48.11361 | 16.56802 | 609 ft | 19 kts | 116° |
| 2026-04-22 17:04 | 48.11299 | 16.56996 | 617 ft | 22 kts | 116° |
| 2026-04-22 17:04 | 48.11225 | 16.57221 | 609 ft | 26 kts | 116° |
| 2026-04-22 17:05 | 48.11146 | 16.57467 | 616 ft | 23 kts | 116° |
| 2026-04-22 17:05 | 48.11073 | 16.57691 | 615 ft | 24 kts | 115° |
| 2026-04-22 17:05 | 48.10951 | 16.57833 | 619 ft | 21 kts | 166° |
| 2026-04-22 17:05 | 48.10819 | 16.57893 | 609 ft | 19 kts | 165° |
| 2026-04-22 17:06 | 48.10695 | 16.57943 | 617 ft | 18 kts | 164° |
| 2026-04-22 17:06 | 48.10581 | 16.57992 | 618 ft | 16 kts | 163° |
| 2026-04-22 17:06 | 48.10477 | 16.58036 | 613 ft | 15 kts | 167° |
| 2026-04-22 17:06 | 48.10378 | 16.58075 | 612 ft | 14 kts | 163° |
| 2026-04-22 17:07 | 48.10288 | 16.58114 | 623 ft | 13 kts | 166° |
| 2026-04-22 17:07 | 48.10205 | 16.58146 | 613 ft | 13 kts | 165° |
| 2026-04-22 17:07 | 48.10090 | 16.58195 | 609 ft | 22 kts | 164° |
| 2026-04-22 17:07 | 48.09932 | 16.58263 | 611 ft | 23 kts | 164° |
| 2026-04-22 17:08 | 48.09787 | 16.58325 | 620 ft | 21 kts | 164° |
| 2026-04-22 17:08 | 48.09655 | 16.58379 | 613 ft | 19 kts | 165° |
| 2026-04-22 17:08 | 48.09532 | 16.58432 | 615 ft | 19 kts | 163° |
| 2026-04-22 17:08 | 48.09387 | 16.58494 | 612 ft | 24 kts | 164° |
| 2026-04-22 17:09 | 48.09229 | 16.58561 | 611 ft | 23 kts | 163° |
| 2026-04-22 17:09 | 48.09084 | 16.58622 | 614 ft | 21 kts | 164° |
| 2026-04-22 17:09 | 48.08999 | 16.58662 | 615 ft | 18 kts | 155° |
| 2026-04-22 17:09 | 48.08920 | 16.58850 | 612 ft | 16 kts | 91° |
| 2026-04-22 17:10 | 48.08957 | 16.58989 | 615 ft | 15 kts | 42° |
| 2026-04-22 17:10 | 48.09050 | 16.59049 | 609 ft | 16 kts | 355° |
| 2026-04-22 17:10 | 48.09233 | 16.58981 | 612 ft | 50 kts | 343° |
| 2026-04-22 17:10 | 48.09786 | 16.58746 | 611 ft | 112 kts | 344° |
| 2026-04-22 17:11 | 48.10703 | 16.58355 | 673 ft | 154 kts | 344° |
| 2026-04-22 17:11 | 48.11721 | 16.57927 | 1359 ft | 154 kts | 345° |
| 2026-04-22 17:11 | 48.12799 | 16.57755 | 1951 ft | 166 kts | 14° |
| 2026-04-22 17:11 | 48.13938 | 16.58448 | 2330 ft | 188 kts | 23° |
| 2026-04-22 17:12 | 48.15224 | 16.59261 | 2681 ft | 212 kts | 12° |
| 2026-04-22 17:12 | 48.16755 | 16.59150 | 3104 ft | 236 kts | 338° |
| 2026-04-22 17:12 | 48.18069 | 16.57587 | 3838 ft | 249 kts | 314° |
| 2026-04-22 17:12 | 48.19285 | 16.55724 | 4802 ft | 251 kts | 319° |
| 2026-04-22 17:13 | 48.20579 | 16.54004 | 5727 ft | 253 kts | 321° |
| 2026-04-22 17:13 | 48.21932 | 16.52287 | 6659 ft | 256 kts | 322° |
| 2026-04-22 17:13 | 48.23304 | 16.50555 | 7518 ft | 260 kts | 322° |
| 2026-04-22 17:13 | 48.24687 | 16.48782 | 8370 ft | 264 kts | 322° |
| 2026-04-22 17:14 | 48.26080 | 16.46969 | 9245 ft | 267 kts | 321° |
| 2026-04-22 17:14 | 48.27485 | 16.45119 | 10096 ft | 271 kts | 321° |
| 2026-04-22 17:14 | 48.28945 | 16.43183 | 10493 ft | 291 kts | 321° |
| 2026-04-22 17:14 | 48.30516 | 16.41092 | 10853 ft | 310 kts | 321° |
| 2026-04-22 17:15 | 48.31591 | 16.39653 | 11276 ft | 315 kts | 321° |
| 2026-04-22 17:15 | 48.33801 | 16.36679 | 12269 ft | 322 kts | 321° |
| 2026-04-22 17:15 | 48.35455 | 16.34447 | 13012 ft | 326 kts | 321° |
| 2026-04-22 17:15 | 48.37154 | 16.32151 | 13747 ft | 331 kts | 321° |
| 2026-04-22 17:16 | 48.38877 | 16.29824 | 14437 ft | 335 kts | 322° |
| 2026-04-22 17:16 | 48.40620 | 16.27473 | 15105 ft | 339 kts | 322° |
| 2026-04-22 17:16 | 48.42383 | 16.25095 | 15785 ft | 342 kts | 322° |
| 2026-04-22 17:16 | 48.44163 | 16.22696 | 16423 ft | 346 kts | 322° |
| 2026-04-22 17:17 | 48.45964 | 16.20262 | 17076 ft | 349 kts | 322° |
| 2026-04-22 17:17 | 48.47754 | 16.17837 | 17725 ft | 353 kts | 322° |
| 2026-04-22 17:17 | 48.49587 | 16.15350 | 18330 ft | 356 kts | 322° |
| 2026-04-22 17:17 | 48.51437 | 16.12834 | 18897 ft | 360 kts | 322° |
| 2026-04-22 17:18 | 48.53306 | 16.10292 | 19477 ft | 363 kts | 322° |
| 2026-04-22 17:18 | 48.55193 | 16.07725 | 20045 ft | 366 kts | 322° |
| 2026-04-22 17:18 | 48.57092 | 16.05147 | 20607 ft | 369 kts | 322° |
| 2026-04-22 17:18 | 48.59011 | 16.02537 | 21170 ft | 373 kts | 322° |
| 2026-04-22 17:19 | 48.62897 | 15.97246 | 22276 ft | 380 kts | 322° |
| 2026-04-22 17:19 | 48.66834 | 15.91872 | 23312 ft | 388 kts | 322° |
| 2026-04-22 17:20 | 48.70866 | 15.86343 | 24253 ft | 395 kts | 322° |
| 2026-04-22 17:20 | 48.74974 | 15.80697 | 25043 ft | 402 kts | 323° |
| 2026-04-22 17:21 | 48.77053 | 15.77833 | 25437 ft | 406 kts | 323° |
| 2026-04-22 17:21 | 48.81262 | 15.72028 | 26220 ft | 412 kts | 323° |
| 2026-04-22 17:22 | 48.85506 | 15.66173 | 26963 ft | 418 kts | 323° |
| 2026-04-22 17:22 | 48.87666 | 15.63195 | 27313 ft | 421 kts | 323° |
| 2026-04-22 17:22 | 48.92298 | 15.57755 | 27968 ft | 424 kts | 330° |
| 2026-04-22 17:23 | 48.94699 | 15.55115 | 28274 ft | 428 kts | 330° |
| 2026-04-22 17:23 | 48.99884 | 15.50929 | 28913 ft | 421 kts | 346° |
| 2026-04-22 17:23 | 49.02636 | 15.49359 | 29249 ft | 424 kts | 346° |
| 2026-04-22 17:24 | 49.05409 | 15.47788 | 29568 ft | 426 kts | 346° |
| 2026-04-22 17:24 | 49.08161 | 15.46229 | 29885 ft | 429 kts | 346° |
| 2026-04-22 17:24 | 49.10968 | 15.44640 | 30195 ft | 432 kts | 346° |
| 2026-04-22 17:24 | 49.13791 | 15.43036 | 30472 ft | 434 kts | 346° |
| 2026-04-22 17:25 | 49.16628 | 15.41421 | 30722 ft | 436 kts | 347° |
| 2026-04-22 17:25 | 49.19483 | 15.39794 | 30953 ft | 439 kts | 346° |
| 2026-04-22 17:25 | 49.22352 | 15.38157 | 31208 ft | 441 kts | 346° |
| 2026-04-22 17:25 | 49.25230 | 15.36510 | 31472 ft | 443 kts | 346° |
| 2026-04-22 17:26 | 49.28120 | 15.34852 | 31726 ft | 444 kts | 346° |
| 2026-04-22 17:26 | 49.31004 | 15.33194 | 32078 ft | 442 kts | 345° |
| 2026-04-22 17:26 | 49.33841 | 15.31562 | 32436 ft | 441 kts | 345° |
| 2026-04-22 17:26 | 49.36712 | 15.29911 | 32791 ft | 440 kts | 345° |
| 2026-04-22 17:27 | 49.39573 | 15.28266 | 33133 ft | 439 kts | 345° |
| 2026-04-22 17:27 | 49.42427 | 15.26622 | 33459 ft | 438 kts | 345° |
| 2026-04-22 17:27 | 49.45279 | 15.24976 | 33797 ft | 438 kts | 345° |
| 2026-04-22 17:27 | 49.48128 | 15.23330 | 34159 ft | 437 kts | 344° |
| 2026-04-22 17:28 | 49.50968 | 15.21689 | 34464 ft | 436 kts | 344° |
| 2026-04-22 17:28 | 49.53801 | 15.20049 | 34741 ft | 435 kts | 344° |
| 2026-04-22 17:28 | 49.56631 | 15.18403 | 34992 ft | 435 kts | 344° |
| 2026-04-22 17:28 | 49.59422 | 15.16779 | 35251 ft | 434 kts | 343° |
| 2026-04-22 17:29 | 49.62250 | 15.15132 | 35498 ft | 434 kts | 343° |
| 2026-04-22 17:29 | 49.65072 | 15.13486 | 35740 ft | 434 kts | 343° |
| 2026-04-22 17:29 | 49.67895 | 15.11840 | 35954 ft | 434 kts | 343° |
| 2026-04-22 17:29 | 49.70721 | 15.10190 | 36174 ft | 434 kts | 343° |
| 2026-04-22 17:30 | 49.73544 | 15.08541 | 36394 ft | 434 kts | 343° |
| 2026-04-22 17:30 | 49.76366 | 15.06893 | 36590 ft | 434 kts | 343° |
| 2026-04-22 17:30 | 49.79186 | 15.05239 | 36805 ft | 433 kts | 343° |
| 2026-04-22 17:30 | 49.82005 | 15.03584 | 37007 ft | 433 kts | 343° |
| 2026-04-22 17:31 | 49.84784 | 15.01956 | 37214 ft | 433 kts | 343° |
| 2026-04-22 17:31 | 49.87601 | 15.00305 | 37410 ft | 433 kts | 342° |
| 2026-04-22 17:31 | 49.90415 | 14.98654 | 37591 ft | 433 kts | 342° |
| 2026-04-22 17:31 | 49.93231 | 14.96994 | 37764 ft | 433 kts | 343° |
| 2026-04-22 17:32 | 49.96043 | 14.95330 | 37952 ft | 433 kts | 342° |
| 2026-04-22 17:32 | 49.98857 | 14.93663 | 38135 ft | 433 kts | 342° |
| 2026-04-22 17:32 | 50.01673 | 14.91996 | 38240 ft | 433 kts | 342° |
| 2026-04-22 17:32 | 50.04488 | 14.90329 | 38247 ft | 433 kts | 342° |
| 2026-04-22 17:33 | 50.10072 | 14.87010 | 38247 ft | 432 kts | 342° |
| 2026-04-22 17:33 | 50.15686 | 14.83658 | 38246 ft | 432 kts | 342° |
| 2026-04-22 17:34 | 50.21412 | 14.81065 | 38253 ft | 428 kts | 352° |
| 2026-04-22 17:34 | 50.27259 | 14.79313 | 38249 ft | 428 kts | 352° |
| 2026-04-22 17:35 | 50.33109 | 14.77549 | 38248 ft | 428 kts | 352° |
| 2026-04-22 17:35 | 50.38925 | 14.75800 | 38254 ft | 428 kts | 352° |
| 2026-04-22 17:36 | 50.44779 | 14.74036 | 38260 ft | 428 kts | 352° |
| 2026-04-22 17:36 | 50.50628 | 14.72268 | 38264 ft | 428 kts | 352° |
| 2026-04-22 17:37 | 50.56476 | 14.70507 | 38263 ft | 428 kts | 352° |
| 2026-04-22 17:37 | 50.62323 | 14.68742 | 38264 ft | 428 kts | 352° |
| 2026-04-22 17:38 | 50.68126 | 14.66980 | 38255 ft | 428 kts | 353° |
| 2026-04-22 17:38 | 50.73965 | 14.65202 | 38258 ft | 428 kts | 353° |
| 2026-04-22 17:39 | 50.79806 | 14.63414 | 38245 ft | 427 kts | 352° |
| 2026-04-22 17:40 | 50.88564 | 14.60734 | 38260 ft | 427 kts | 352° |
| 2026-04-22 17:40 | 50.94406 | 14.58934 | 38250 ft | 428 kts | 353° |
| 2026-04-22 17:41 | 51.00209 | 14.57152 | 38254 ft | 428 kts | 353° |
| 2026-04-22 17:41 | 51.06055 | 14.55342 | 38258 ft | 428 kts | 353° |
| 2026-04-22 17:42 | 51.11900 | 14.53526 | 38256 ft | 428 kts | 353° |
| 2026-04-22 17:42 | 51.16759 | 14.52017 | 38245 ft | 428 kts | 353° |
| 2026-04-22 17:43 | 51.23598 | 14.49891 | 38253 ft | 428 kts | 353° |
| 2026-04-22 17:43 | 51.29409 | 14.48080 | 38263 ft | 428 kts | 353° |
| 2026-04-22 17:44 | 51.35260 | 14.46247 | 38247 ft | 428 kts | 353° |
| 2026-04-22 17:44 | 51.41113 | 14.44406 | 38236 ft | 429 kts | 353° |
| 2026-04-22 17:45 | 51.46967 | 14.42573 | 38249 ft | 429 kts | 353° |
| 2026-04-22 17:45 | 51.52826 | 14.40738 | 38253 ft | 429 kts | 353° |
| 2026-04-22 17:46 | 51.58646 | 14.38889 | 38244 ft | 429 kts | 353° |
| 2026-04-22 17:46 | 51.64503 | 14.37019 | 38239 ft | 429 kts | 354° |
| 2026-04-22 17:47 | 51.70363 | 14.35169 | 38238 ft | 429 kts | 353° |
| 2026-04-22 17:47 | 51.76220 | 14.33316 | 38243 ft | 429 kts | 353° |
| 2026-04-22 17:48 | 51.81089 | 14.31761 | 38256 ft | 429 kts | 353° |
| 2026-04-22 17:48 | 51.87892 | 14.29564 | 38255 ft | 429 kts | 353° |
| 2026-04-22 17:49 | 51.93748 | 14.27681 | 38246 ft | 429 kts | 354° |
| 2026-04-22 17:49 | 51.99602 | 14.25805 | 38248 ft | 429 kts | 354° |
| 2026-04-22 17:50 | 52.05457 | 14.23917 | 38252 ft | 429 kts | 354° |
| 2026-04-22 17:50 | 52.11268 | 14.22029 | 38253 ft | 429 kts | 354° |
| 2026-04-22 17:51 | 52.17122 | 14.20130 | 38236 ft | 429 kts | 354° |
| 2026-04-22 17:51 | 52.22979 | 14.18219 | 38239 ft | 429 kts | 354° |
| 2026-04-22 17:52 | 52.28838 | 14.16308 | 38253 ft | 430 kts | 354° |
| 2026-04-22 17:52 | 52.34699 | 14.14389 | 38255 ft | 430 kts | 354° |
| 2026-04-22 17:53 | 52.40562 | 14.12463 | 38247 ft | 430 kts | 354° |
| 2026-04-22 17:53 | 52.46391 | 14.10543 | 38241 ft | 430 kts | 354° |
| 2026-04-22 17:54 | 52.52261 | 14.08607 | 38230 ft | 431 kts | 354° |
| 2026-04-22 17:54 | 52.58140 | 14.06667 | 38229 ft | 431 kts | 354° |
| 2026-04-22 17:55 | 52.63027 | 14.05044 | 38238 ft | 431 kts | 354° |
| 2026-04-22 17:55 | 52.69868 | 14.02766 | 38240 ft | 432 kts | 354° |
| 2026-04-22 17:56 | 52.75755 | 14.00797 | 38255 ft | 432 kts | 354° |
| 2026-04-22 17:56 | 52.81644 | 13.98829 | 38260 ft | 432 kts | 354° |
| 2026-04-22 17:57 | 52.87533 | 13.96862 | 38265 ft | 432 kts | 354° |
| 2026-04-22 17:57 | 52.93421 | 13.94885 | 38231 ft | 432 kts | 354° |
| 2026-04-22 17:58 | 52.99275 | 13.92912 | 38247 ft | 432 kts | 354° |
| 2026-04-22 17:58 | 53.05170 | 13.90919 | 38258 ft | 432 kts | 354° |
| 2026-04-22 17:59 | 53.11069 | 13.88916 | 38260 ft | 433 kts | 354° |
| 2026-04-22 17:59 | 53.16966 | 13.86912 | 38245 ft | 433 kts | 354° |
| 2026-04-22 18:00 | 53.21873 | 13.85237 | 38225 ft | 433 kts | 354° |
| 2026-04-22 18:00 | 53.28736 | 13.82887 | 38243 ft | 434 kts | 354° |
| 2026-04-22 18:01 | 53.34649 | 13.80861 | 38247 ft | 434 kts | 354° |
| 2026-04-22 18:01 | 53.40567 | 13.78822 | 38253 ft | 434 kts | 354° |
| 2026-04-22 18:02 | 53.46483 | 13.76781 | 38242 ft | 434 kts | 354° |
| 2026-04-22 18:02 | 53.52360 | 13.74741 | 38258 ft | 434 kts | 354° |
| 2026-04-22 18:03 | 53.58272 | 13.72691 | 38256 ft | 434 kts | 354° |
| 2026-04-22 18:03 | 53.64186 | 13.70637 | 38259 ft | 434 kts | 354° |
| 2026-04-22 18:04 | 53.70097 | 13.68577 | 38255 ft | 434 kts | 354° |
| 2026-04-22 18:04 | 53.75008 | 13.66864 | 38229 ft | 434 kts | 354° |
| 2026-04-22 18:05 | 53.81877 | 13.64457 | 38234 ft | 434 kts | 354° |
| 2026-04-22 18:05 | 53.87792 | 13.62370 | 38239 ft | 434 kts | 354° |
| 2026-04-22 18:06 | 53.92707 | 13.60641 | 38243 ft | 434 kts | 354° |
| 2026-04-22 18:06 | 53.98628 | 13.58548 | 38227 ft | 434 kts | 354° |
| 2026-04-22 18:07 | 54.04545 | 13.56441 | 38241 ft | 434 kts | 354° |
| 2026-04-22 18:07 | 54.10458 | 13.54332 | 38248 ft | 434 kts | 354° |
| 2026-04-22 18:08 | 54.16335 | 13.52237 | 38245 ft | 434 kts | 354° |
| 2026-04-22 18:08 | 54.22245 | 13.50119 | 38246 ft | 434 kts | 354° |
| 2026-04-22 18:09 | 54.28152 | 13.48002 | 38237 ft | 434 kts | 354° |
| 2026-04-22 18:09 | 54.33859 | 13.45942 | 38242 ft | 434 kts | 354° |
| 2026-04-22 18:10 | 54.39764 | 13.43814 | 38236 ft | 434 kts | 354° |
| 2026-04-22 18:10 | 54.45627 | 13.41695 | 38239 ft | 434 kts | 354° |
| 2026-04-22 18:11 | 54.51536 | 13.39549 | 38244 ft | 434 kts | 354° |
| 2026-04-22 18:11 | 54.57442 | 13.37403 | 38226 ft | 434 kts | 354° |
| 2026-04-22 18:12 | 54.63349 | 13.35229 | 38222 ft | 434 kts | 354° |
| 2026-04-22 18:12 | 54.69218 | 13.33061 | 38230 ft | 434 kts | 354° |
| 2026-04-22 18:13 | 54.75126 | 13.30899 | 38237 ft | 434 kts | 354° |
| 2026-04-22 18:13 | 54.81033 | 13.28732 | 38229 ft | 434 kts | 354° |
| 2026-04-22 18:14 | 54.86936 | 13.26549 | 38228 ft | 433 kts | 354° |
| 2026-04-22 18:14 | 54.92833 | 13.24365 | 38235 ft | 433 kts | 354° |
| 2026-04-22 18:15 | 54.98684 | 13.22190 | 38235 ft | 433 kts | 354° |
| 2026-04-22 18:15 | 55.04574 | 13.19991 | 38219 ft | 433 kts | 354° |
| 2026-04-22 18:16 | 55.10467 | 13.17785 | 38211 ft | 433 kts | 354° |
| 2026-04-22 18:16 | 55.16356 | 13.15582 | 38226 ft | 433 kts | 354° |
| 2026-04-22 18:17 | 55.22208 | 13.13387 | 38228 ft | 433 kts | 354° |
| 2026-04-22 18:17 | 55.28093 | 13.11157 | 38242 ft | 433 kts | 354° |
| 2026-04-22 18:18 | 55.33983 | 13.08919 | 37952 ft | 434 kts | 354° |
| 2026-04-22 18:18 | 55.36929 | 13.07802 | 37540 ft | 432 kts | 354° |
| 2026-04-22 18:18 | 55.39864 | 13.06686 | 37137 ft | 432 kts | 354° |
| 2026-04-22 18:18 | 55.42797 | 13.05569 | 36746 ft | 431 kts | 354° |
| 2026-04-22 18:19 | 55.45690 | 13.04467 | 36354 ft | 431 kts | 354° |
| 2026-04-22 18:19 | 55.48622 | 13.03345 | 35970 ft | 430 kts | 354° |
| 2026-04-22 18:19 | 55.51533 | 13.02230 | 35592 ft | 427 kts | 355° |
| 2026-04-22 18:19 | 55.54423 | 13.01123 | 35223 ft | 424 kts | 355° |
| 2026-04-22 18:20 | 55.57294 | 13.00025 | 34868 ft | 420 kts | 355° |
| 2026-04-22 18:20 | 55.60140 | 12.98932 | 34507 ft | 417 kts | 355° |
| 2026-04-22 18:20 | 55.62965 | 12.97842 | 34115 ft | 414 kts | 355° |
| 2026-04-22 18:20 | 55.65765 | 12.96761 | 33680 ft | 410 kts | 355° |
| 2026-04-22 18:21 | 55.68549 | 12.95686 | 33276 ft | 409 kts | 355° |
| 2026-04-22 18:21 | 55.71281 | 12.94630 | 32879 ft | 406 kts | 355° |
| 2026-04-22 18:21 | 55.74033 | 12.93564 | 32484 ft | 404 kts | 355° |
| 2026-04-22 18:21 | 55.76771 | 12.92501 | 32089 ft | 402 kts | 354° |
| 2026-04-22 18:22 | 55.79495 | 12.91440 | 31710 ft | 399 kts | 354° |
| 2026-04-22 18:22 | 55.82197 | 12.90388 | 31336 ft | 397 kts | 354° |
| 2026-04-22 18:22 | 55.84885 | 12.89344 | 30956 ft | 394 kts | 354° |
| 2026-04-22 18:22 | 55.87559 | 12.88303 | 30588 ft | 392 kts | 354° |
| 2026-04-22 18:23 | 55.90217 | 12.87272 | 30193 ft | 390 kts | 354° |
| 2026-04-22 18:23 | 55.92853 | 12.86248 | 29766 ft | 386 kts | 354° |
| 2026-04-22 18:23 | 55.95462 | 12.85226 | 29344 ft | 382 kts | 354° |
| 2026-04-22 18:24 | 56.00576 | 12.83205 | 28524 ft | 377 kts | 352° |
| 2026-04-22 18:24 | 56.03073 | 12.81734 | 28120 ft | 380 kts | 342° |
| 2026-04-22 18:24 | 56.07524 | 12.76525 | 27334 ft | 388 kts | 322° |
| 2026-04-22 18:25 | 56.09358 | 12.72952 | 26948 ft | 390 kts | 316° |
| 2026-04-22 18:25 | 56.11122 | 12.69291 | 26567 ft | 387 kts | 316° |
| 2026-04-22 18:25 | 56.12877 | 12.65660 | 26193 ft | 384 kts | 316° |
| 2026-04-22 18:26 | 56.16332 | 12.58520 | 25453 ft | 380 kts | 315° |
| 2026-04-22 18:26 | 56.17907 | 12.54702 | 25230 ft | 381 kts | 309° |
| 2026-04-22 18:26 | 56.19399 | 12.50774 | 25238 ft | 381 kts | 309° |
| 2026-04-22 18:26 | 56.20901 | 12.46839 | 25243 ft | 382 kts | 309° |
| 2026-04-22 18:27 | 56.22403 | 12.42912 | 25189 ft | 382 kts | 309° |
| 2026-04-22 18:27 | 56.23899 | 12.38987 | 24940 ft | 379 kts | 309° |
| 2026-04-22 18:27 | 56.25377 | 12.35090 | 24698 ft | 377 kts | 309° |
| 2026-04-22 18:27 | 56.26850 | 12.31204 | 24468 ft | 375 kts | 309° |
| 2026-04-22 18:28 | 56.28290 | 12.27387 | 24237 ft | 373 kts | 308° |
| 2026-04-22 18:28 | 56.29867 | 12.23727 | 24009 ft | 366 kts | 319° |
| 2026-04-22 18:28 | 56.31766 | 12.20753 | 23774 ft | 359 kts | 330° |
| 2026-04-22 18:28 | 56.33907 | 12.18556 | 23496 ft | 351 kts | 341° |
| 2026-04-22 18:29 | 56.36195 | 12.17162 | 23215 ft | 344 kts | 352° |
| 2026-04-22 18:29 | 56.38541 | 12.16448 | 22953 ft | 341 kts | 355° |
| 2026-04-22 18:29 | 56.40881 | 12.15808 | 22666 ft | 340 kts | 355° |
| 2026-04-22 18:29 | 56.43219 | 12.15160 | 22398 ft | 340 kts | 355° |
| 2026-04-22 18:30 | 56.45551 | 12.14508 | 22135 ft | 338 kts | 355° |
| 2026-04-22 18:30 | 56.50151 | 12.13209 | 21609 ft | 335 kts | 354° |
| 2026-04-22 18:30 | 56.52453 | 12.12563 | 21347 ft | 334 kts | 354° |
| 2026-04-22 18:31 | 56.54738 | 12.11927 | 21099 ft | 331 kts | 354° |
| 2026-04-22 18:31 | 56.57011 | 12.11290 | 20850 ft | 330 kts | 354° |
| 2026-04-22 18:31 | 56.59273 | 12.10655 | 20597 ft | 328 kts | 354° |
| 2026-04-22 18:31 | 56.61526 | 12.10024 | 20349 ft | 327 kts | 353° |
| 2026-04-22 18:32 | 56.63766 | 12.09398 | 20102 ft | 325 kts | 353° |
| 2026-04-22 18:32 | 56.65998 | 12.08774 | 19857 ft | 323 kts | 353° |
| 2026-04-22 18:32 | 56.68174 | 12.08162 | 19537 ft | 319 kts | 353° |
| 2026-04-22 18:32 | 56.70366 | 12.07547 | 19129 ft | 318 kts | 353° |
| 2026-04-22 18:33 | 56.72556 | 12.06934 | 18718 ft | 318 kts | 353° |
| 2026-04-22 18:33 | 56.74743 | 12.06320 | 18245 ft | 318 kts | 352° |
| 2026-04-22 18:33 | 56.76922 | 12.05706 | 17826 ft | 316 kts | 352° |
| 2026-04-22 18:33 | 56.79089 | 12.05089 | 17412 ft | 314 kts | 352° |
| 2026-04-22 18:34 | 56.81242 | 12.04474 | 17009 ft | 312 kts | 352° |
| 2026-04-22 18:34 | 56.83355 | 12.03869 | 16604 ft | 311 kts | 352° |
| 2026-04-22 18:34 | 56.85485 | 12.03259 | 16208 ft | 309 kts | 352° |
| 2026-04-22 18:34 | 56.87605 | 12.02654 | 15809 ft | 308 kts | 352° |
| 2026-04-22 18:35 | 56.89716 | 12.02053 | 15420 ft | 306 kts | 352° |
| 2026-04-22 18:35 | 56.91820 | 12.01455 | 15021 ft | 305 kts | 351° |
| 2026-04-22 18:35 | 56.93915 | 12.00859 | 14630 ft | 304 kts | 351° |
| 2026-04-22 18:35 | 56.96003 | 12.00266 | 14234 ft | 303 kts | 351° |
| 2026-04-22 18:36 | 56.98059 | 11.99681 | 13824 ft | 302 kts | 351° |
| 2026-04-22 18:36 | 57.00129 | 11.99088 | 13412 ft | 300 kts | 351° |
| 2026-04-22 18:36 | 57.02188 | 11.98497 | 13009 ft | 298 kts | 351° |
| 2026-04-22 18:36 | 57.04238 | 11.98073 | 12602 ft | 296 kts | 359° |
| 2026-04-22 18:37 | 57.06282 | 11.98441 | 12201 ft | 295 kts | 6° |
| 2026-04-22 18:37 | 57.08304 | 11.98950 | 11811 ft | 292 kts | 6° |
| 2026-04-22 18:37 | 57.10310 | 11.99447 | 11526 ft | 286 kts | 6° |
| 2026-04-22 18:37 | 57.12247 | 11.99927 | 11344 ft | 277 kts | 5° |
| 2026-04-22 18:38 | 57.14149 | 12.00399 | 11007 ft | 275 kts | 5° |
| 2026-04-22 18:38 | 57.16009 | 12.00859 | 10658 ft | 273 kts | 5° |
| 2026-04-22 18:38 | 57.17882 | 12.01319 | 10305 ft | 270 kts | 5° |
| 2026-04-22 18:39 | 57.21587 | 12.02232 | 9530 ft | 267 kts | 5° |
| 2026-04-22 18:39 | 57.23420 | 12.02688 | 9112 ft | 266 kts | 5° |
| 2026-04-22 18:39 | 57.25248 | 12.03146 | 8694 ft | 264 kts | 5° |
| 2026-04-22 18:39 | 57.27012 | 12.03588 | 8292 ft | 263 kts | 5° |
| 2026-04-22 18:40 | 57.28807 | 12.04039 | 7723 ft | 259 kts | 5° |
| 2026-04-22 18:40 | 57.30585 | 12.04488 | 7021 ft | 257 kts | 5° |
| 2026-04-22 18:40 | 57.32328 | 12.04930 | 6535 ft | 248 kts | 5° |
| 2026-04-22 18:40 | 57.33978 | 12.05346 | 6113 ft | 238 kts | 5° |
| 2026-04-22 18:41 | 57.35581 | 12.05746 | 5649 ft | 229 kts | 6° |
| 2026-04-22 18:41 | 57.37142 | 12.06137 | 5171 ft | 222 kts | 6° |
| 2026-04-22 18:41 | 57.38643 | 12.06515 | 4772 ft | 213 kts | 6° |
| 2026-04-22 18:41 | 57.40077 | 12.06877 | 4521 ft | 201 kts | 6° |
| 2026-04-22 18:42 | 57.41418 | 12.07218 | 4473 ft | 189 kts | 6° |
| 2026-04-22 18:42 | 57.42717 | 12.07544 | 4416 ft | 188 kts | 6° |
| 2026-04-22 18:42 | 57.43992 | 12.08076 | 4342 ft | 189 kts | 17° |
| 2026-04-22 18:42 | 57.45212 | 12.09004 | 4271 ft | 189 kts | 21° |
| 2026-04-22 18:43 | 57.46348 | 12.09985 | 4196 ft | 177 kts | 22° |
| 2026-04-22 18:43 | 57.47446 | 12.10961 | 4101 ft | 174 kts | 22° |
| 2026-04-22 18:43 | 57.48531 | 12.11932 | 4034 ft | 173 kts | 22° |
| 2026-04-22 18:43 | 57.49616 | 12.12907 | 3867 ft | 173 kts | 22° |
| 2026-04-22 18:44 | 57.50696 | 12.13878 | 3658 ft | 172 kts | 22° |
| 2026-04-22 18:44 | 57.51764 | 12.14840 | 3450 ft | 168 kts | 22° |
| 2026-04-22 18:44 | 57.52787 | 12.15764 | 3213 ft | 157 kts | 22° |
| 2026-04-22 18:44 | 57.53713 | 12.16601 | 3026 ft | 141 kts | 22° |
| 2026-04-22 18:45 | 57.54563 | 12.17364 | 2815 ft | 135 kts | 22° |
| 2026-04-22 18:45 | 57.55395 | 12.18122 | 2609 ft | 132 kts | 22° |
| 2026-04-22 18:45 | 57.56215 | 12.18862 | 2469 ft | 131 kts | 22° |
| 2026-04-22 18:45 | 57.57031 | 12.19590 | 2326 ft | 130 kts | 22° |
| 2026-04-22 18:46 | 57.57840 | 12.20325 | 2139 ft | 129 kts | 22° |
| 2026-04-22 18:46 | 57.58647 | 12.21057 | 1940 ft | 129 kts | 22° |
| 2026-04-22 18:46 | 57.59456 | 12.21789 | 1737 ft | 129 kts | 23° |
| 2026-04-22 18:46 | 57.60262 | 12.22521 | 1573 ft | 129 kts | 22° |
| 2026-04-22 18:47 | 57.61066 | 12.23246 | 1395 ft | 129 kts | 23° |
| 2026-04-22 18:47 | 57.61859 | 12.23974 | 1214 ft | 129 kts | 22° |
| 2026-04-22 18:47 | 57.62674 | 12.24697 | 1025 ft | 130 kts | 23° |
| 2026-04-22 18:47 | 57.63493 | 12.25453 | 836 ft | 132 kts | 22° |
| 2026-04-22 18:48 | 57.64330 | 12.26204 | 655 ft | 134 kts | 22° |
| 2026-04-22 18:48 | 57.65172 | 12.26974 | 502 ft | 134 kts | 23° |
| 2026-04-22 18:48 | 57.65902 | 12.27633 | 506 ft | 94 kts | 26° |
| 2026-04-22 18:48 | 57.66346 | 12.28037 | 511 ft | 51 kts | 26° |
| 2026-04-22 18:49 | 57.66550 | 12.28228 | 512 ft | 24 kts | 32° |
| 2026-04-22 18:49 | 57.66671 | 12.28453 | 512 ft | 25 kts | 54° |
| 2026-04-22 18:49 | 57.66771 | 12.28727 | 513 ft | 22 kts | 55° |
| 2026-04-22 18:49 | 57.66829 | 12.28882 | 514 ft | 13 kts | 87° |
| 2026-04-22 18:50 | 57.66800 | 12.28997 | 516 ft | 9 kts | 118° |
| 2026-04-22 18:50 | 57.66774 | 12.29084 | 516 ft | 6 kts | 118° |
| 2026-04-22 18:50 | 57.66759 | 12.29146 | 516 ft | 5 kts | 116° |
| 2026-04-22 18:50 | 57.66746 | 12.29198 | 516 ft | 4 kts | 115° |
| 2026-04-22 18:51 | 57.66735 | 12.29242 | 516 ft | 3 kts | 116° |
| 2026-04-22 18:51 | 57.66730 | 12.29258 | 516 ft | 0 kts | 116° |
| 2026-04-22 18:51 | 57.66730 | 12.29260 | 516 ft | 0 kts | 116° |
| 2026-04-22 18:51 | 57.66728 | 12.29265 | 516 ft | 0 kts | 116° |
| 2026-04-22 18:52 | 57.66728 | 12.29267 | 516 ft | 0 kts | 116° |